Time;durP1;ratioP1;P1;durP2;ratioP2;P2;SDS_P1;SDS_P2;PMS_P1;PMS_P2;Temp;Humidity;BMP_temperature;BMP_pressure;BME280_temperature;BME280_humidity;BME280_pressure;Samples;Min_cycle;Max_cycle;Signal;HPM_P1;HPM_P2
2022/12/24 00:02:19;;;;;;;16.30;9.40;;;9.20;99.90;;;;;;5086302;28;20047;-61
2022/12/24 00:04:44;;;;;;;16.35;9.38;;;9.10;99.90;;;;;;5073908;28;20094;-61
2022/12/24 00:07:10;;;;;;;17.15;10.73;;;9.20;99.90;;;;;;5073975;28;20115;-59
2022/12/24 00:09:36;;;;;;;12.13;7.55;;;9.20;99.90;;;;;;5073692;28;20106;-62
2022/12/24 00:12:03;;;;;;;13.68;9.27;;;9.20;99.90;;;;;;5073423;28;20040;-61
2022/12/24 00:14:29;;;;;;;13.65;7.90;;;9.20;99.90;;;;;;5073543;28;20456;-60
2022/12/24 00:16:55;;;;;;;12.57;8.10;;;9.20;99.90;;;;;;5081262;28;20115;-61
2022/12/24 00:19:21;;;;;;;14.50;8.82;;;9.20;99.90;;;;;;5076882;28;20500;-60
2022/12/24 00:21:47;;;;;;;17.42;9.20;;;9.10;99.90;;;;;;5093514;28;20040;-62
2022/12/24 00:24:13;;;;;;;14.00;8.23;;;9.20;99.90;;;;;;5062473;28;20056;-60
2022/12/24 00:26:38;;;;;;;16.85;10.50;;;9.20;99.90;;;;;;5073653;28;20033;-62
2022/12/24 00:29:04;;;;;;;13.25;7.70;;;9.10;99.90;;;;;;5077978;28;20127;-62
2022/12/24 00:31:29;;;;;;;13.05;7.18;;;9.20;99.90;;;;;;5073416;28;20032;-62
2022/12/24 00:33:55;;;;;;;20.20;8.88;;;9.10;99.90;;;;;;5072964;28;20055;-61
2022/12/24 00:36:21;;;;;;;15.73;7.00;;;9.10;99.90;;;;;;5072963;28;20028;-61
2022/12/24 00:38:46;;;;;;;13.45;7.22;;;9.10;99.90;;;;;;5055386;28;20086;-59
2022/12/24 00:41:27;;;;;;;16.05;8.65;;;9.10;99.90;;;;;;5073289;28;20438;-62
2022/12/24 00:44:00;;;;;;;14.10;7.20;;;9.00;99.90;;;;;;5076935;28;20067;-61
2022/12/24 00:46:27;;;;;;;16.23;9.30;;;9.10;99.90;;;;;;5072866;28;20040;-61
2022/12/24 00:48:53;;;;;;;14.98;8.68;;;9.20;99.90;;;;;;5072928;28;20068;-61
2022/12/24 00:51:20;;;;;;;12.45;7.00;;;9.10;99.90;;;;;;5064914;28;20390;-61
2022/12/24 00:53:46;;;;;;;14.07;8.05;;;9.20;99.90;;;;;;5076237;28;20047;-60
2022/12/24 00:56:12;;;;;;;12.68;6.47;;;9.10;99.90;;;;;;5082511;28;20039;-62
2022/12/24 00:58:37;;;;;;;17.70;9.02;;;9.20;99.90;;;;;;5083187;28;20047;-61
2022/12/24 01:01:03;;;;;;;10.30;5.80;;;9.30;99.90;;;;;;5082794;28;20408;-62
2022/12/24 01:03:35;;;;;;;12.95;6.85;;;9.30;99.90;;;;;;5087692;28;20075;-59
2022/12/24 01:06:08;;;;;;;14.00;6.70;;;9.30;99.90;;;;;;5076212;28;20111;-61
2022/12/24 01:08:34;;;;;;;14.17;6.80;;;9.30;99.90;;;;;;5054853;28;20047;-62
2022/12/24 01:11:02;;;;;;;11.18;5.95;;;9.30;99.90;;;;;;5072735;28;20040;-62
2022/12/24 01:13:29;;;;;;;9.10;4.00;;;9.40;99.90;;;;;;5085022;28;20044;-62
2022/12/24 01:15:54;;;;;;;12.68;4.28;;;9.30;99.90;;;;;;5083860;28;20379;-62
2022/12/24 01:18:23;;;;;;;18.65;5.07;;;9.30;99.90;;;;;;5085681;28;20036;-62
2022/12/24 01:20:57;;;;;;;13.93;5.22;;;9.30;99.90;;;;;;5072196;28;20111;-63
2022/12/24 01:23:23;;;;;;;18.48;5.35;;;9.30;99.90;;;;;;5058700;28;20043;-61
2022/12/24 01:25:49;;;;;;;20.83;6.20;;;9.20;99.90;;;;;;5072101;28;20040;-63
2022/12/24 01:28:14;;;;;;;25.48;6.63;;;9.10;99.90;;;;;;5076582;28;20095;-61
2022/12/24 01:30:40;;;;;;;23.63;6.18;;;9.00;99.90;;;;;;5072543;28;20435;-63
2022/12/24 01:33:06;;;;;;;29.02;7.43;;;9.00;99.90;;;;;;5054083;28;20044;-61
2022/12/24 01:35:31;;;;;;;36.28;7.82;;;9.10;99.90;;;;;;5054674;28;20059;-61
2022/12/24 01:37:57;;;;;;;41.67;8.80;;;9.00;99.90;;;;;;5072704;28;20040;-59
2022/12/24 01:43:23;;;;;;;39.03;8.50;;;9.00;99.90;;;;;;5052527;28;20168;-62
2022/12/24 01:45:53;;;;;;;35.83;8.23;;;9.00;99.90;;;;;;5068962;28;20178;-60
2022/12/24 01:48:32;;;;;;;37.00;7.95;;;9.00;99.90;;;;;;5064247;28;20056;-61
2022/12/24 01:51:16;;;;;;;45.40;10.23;;;9.10;99.90;;;;;;5098249;28;20361;-61
2022/12/24 01:53:46;;;;;;;48.50;9.87;;;9.00;99.90;;;;;;5095654;28;20062;-61
2022/12/24 01:56:13;;;;;;;50.72;11.00;;;9.10;99.90;;;;;;5079446;28;20051;-62
2022/12/24 01:58:41;;;;;;;41.22;9.75;;;9.10;99.90;;;;;;5084466;28;20438;-61
2022/12/24 02:01:07;;;;;;;38.67;8.90;;;9.20;99.90;;;;;;5088884;28;20128;-59
2022/12/24 02:03:32;;;;;;;44.85;8.57;;;9.20;99.90;;;;;;5094219;28;20123;-61
2022/12/24 02:05:59;;;;;;;36.30;8.10;;;9.30;99.90;;;;;;5082960;28;20040;-61
2022/12/24 02:08:38;;;;;;;41.33;9.70;;;9.20;99.90;;;;;;5078827;28;20124;-60
2022/12/24 02:11:09;;;;;;;35.35;8.48;;;9.30;99.90;;;;;;5090878;28;20055;-60
2022/12/24 02:13:35;;;;;;;40.15;8.82;;;9.20;99.90;;;;;;5092129;28;20028;-61
2022/12/24 02:16:28;;;;;;;36.92;8.55;;;9.40;99.90;;;;;;5084677;28;20437;-61
2022/12/24 02:19:16;;;;;;;37.85;7.63;;;9.40;99.90;;;;;;5068446;28;20041;-60
2022/12/24 02:22:01;;;;;;;42.80;9.45;;;9.40;99.90;;;;;;5091996;28;20128;-62
2022/12/24 02:24:39;;;;;;;51.35;11.70;;;9.50;99.90;;;;;;5058585;28;20366;-62
2022/12/24 02:27:11;;;;;;;47.45;10.25;;;9.30;99.90;;;;;;5076925;28;20105;-60
2022/12/24 02:30:18;;;;;;;53.70;11.93;;;9.40;99.90;;;;;;5078676;28;20511;-61
2022/12/24 02:33:13;;;;;;;46.20;12.00;;;9.50;99.90;;;;;;5039022;28;20047;-60
2022/12/24 02:35:42;;;;;;;;;;;9.50;99.90;;;;;;5079476;28;20036;-61
2022/12/24 02:38:56;;;;;;;55.35;12.20;;;9.50;99.90;;;;;;5078850;28;20039;-61
2022/12/24 02:41:26;;;;;;;47.75;11.20;;;9.60;99.90;;;;;;5075738;28;20154;-62
2022/12/24 02:43:56;;;;;;;33.17;8.23;;;9.50;99.90;;;;;;5078271;28;20037;-61
2022/12/24 02:46:28;;;;;;;40.97;9.57;;;9.50;99.90;;;;;;5078342;28;20047;-60
2022/12/24 02:48:55;;;;;;;43.17;9.88;;;9.50;99.90;;;;;;5081365;28;20107;-60
2022/12/24 02:51:23;;;;;;;38.50;8.13;;;9.50;99.90;;;;;;5098074;28;20436;-60
2022/12/24 02:53:49;;;;;;;44.80;9.23;;;9.50;99.90;;;;;;5076528;28;20036;-60
2022/12/24 02:56:35;;;;;;;46.13;10.90;;;9.50;99.90;;;;;;5078347;28;20425;-60
2022/12/24 02:59:10;;;;;;;37.15;7.97;;;9.50;99.90;;;;;;5091298;28;20118;-59
2022/12/24 03:02:12;;;;;;;35.50;7.40;;;9.40;99.90;;;;;;5087577;28;20035;-61
2022/12/24 03:04:47;;;;;;;29.90;6.57;;;9.40;99.90;;;;;;5082023;28;20071;-61
2022/12/24 03:07:15;;;;;;;;;;;9.40;99.90;;;;;;5062724;28;20135;-60
2022/12/24 03:10:20;;;;;;;31.45;7.72;;;9.40;99.90;;;;;;5079153;28;19963;-60
2022/12/24 03:12:56;;;;;;;35.88;9.68;;;9.50;99.90;;;;;;5074021;28;20098;-60
2022/12/24 03:15:24;;;;;;;43.03;11.32;;;9.40;99.90;;;;;;5063651;28;20041;-61
2022/12/24 03:17:54;;;;;;;40.70;11.80;;;9.50;99.90;;;;;;5057119;28;20040;-60
2022/12/24 03:20:25;;;;;;;55.22;12.90;;;9.50;99.90;;;;;;5072422;28;20102;-60
2022/12/24 03:22:51;;;;;;;59.58;13.52;;;9.50;99.90;;;;;;5074088;28;20044;-60
2022/12/24 03:25:18;;;;;;;49.28;11.95;;;9.40;99.90;;;;;;5078372;28;20042;-60
2022/12/24 03:27:44;;;;;;;50.50;12.70;;;9.40;99.90;;;;;;5074204;28;20461;-60
2022/12/24 03:30:13;;;;;;;49.42;13.38;;;9.40;99.90;;;;;;5074767;28;20048;-60
2022/12/24 03:32:38;;;;;;;43.00;11.00;;;9.40;99.90;;;;;;5074074;28;20119;-59
2022/12/24 03:35:06;;;;;;;41.47;10.68;;;9.40;99.90;;;;;;5074297;28;20123;-62
2022/12/24 03:37:31;;;;;;;39.83;11.95;;;9.40;99.90;;;;;;5074860;28;20098;-62
2022/12/24 03:39:57;;;;;;;46.28;12.75;;;9.50;99.90;;;;;;5079081;28;20426;-61
2022/12/24 03:42:26;;;;;;;49.67;12.98;;;9.60;99.90;;;;;;5074772;28;20111;-60
2022/12/24 03:44:51;;;;;;;40.47;10.52;;;9.50;99.90;;;;;;5074833;28;20044;-60
2022/12/24 03:47:17;;;;;;;44.13;14.02;;;9.50;99.90;;;;;;5076237;28;20043;-62
2022/12/24 03:49:42;;;;;;;38.15;9.73;;;9.40;99.90;;;;;;5075619;28;20086;-62
2022/12/24 03:52:08;;;;;;;38.08;10.95;;;9.50;99.90;;;;;;5075156;28;20028;-60
2022/12/24 03:54:33;;;;;;;42.15;9.80;;;9.50;99.90;;;;;;5079178;28;20036;-61
2022/12/24 03:56:59;;;;;;;50.80;12.80;;;9.50;99.90;;;;;;5074850;28;20044;-59
2022/12/24 03:59:26;;;;;;;42.72;9.73;;;9.50;99.90;;;;;;5075525;28;20109;-60
2022/12/24 04:01:52;;;;;;;39.90;9.75;;;9.50;99.90;;;;;;5075756;28;20517;-60
2022/12/24 04:04:17;;;;;;;37.50;9.57;;;9.40;99.90;;;;;;5073896;28;20048;-61
2022/12/24 04:06:43;;;;;;;40.00;9.52;;;9.40;99.90;;;;;;5076242;28;20040;-61
2022/12/24 04:09:08;;;;;;;37.42;10.13;;;9.40;99.90;;;;;;5078435;28;20036;-60
2022/12/24 04:11:34;;;;;;;36.60;9.88;;;9.40;99.90;;;;;;5074910;28;20353;-61
2022/12/24 04:14:00;;;;;;;36.63;9.70;;;9.40;99.90;;;;;;5073526;28;20044;-60
2022/12/24 04:16:25;;;;;;;37.88;7.65;;;9.40;99.90;;;;;;5076781;28;20036;-60
2022/12/24 04:18:51;;;;;;;32.75;7.90;;;9.50;99.90;;;;;;5072682;28;20040;-61
2022/12/24 04:21:19;;;;;;;36.13;7.07;;;9.40;99.90;;;;;;5076462;28;20048;-60
2022/12/24 04:23:46;;;;;;;30.73;7.70;;;9.40;99.90;;;;;;5091552;28;20081;-60
2022/12/24 04:26:21;;;;;;;32.95;7.00;;;9.40;99.90;;;;;;5087985;28;20119;-62
2022/12/24 04:28:47;;;;;;;35.40;8.00;;;9.30;99.90;;;;;;5092399;28;20139;-61
2022/12/24 04:31:15;;;;;;;36.28;8.43;;;9.30;99.90;;;;;;5087978;28;20238;-61
2022/12/24 04:33:41;;;;;;;34.58;8.40;;;9.40;99.90;;;;;;5072512;28;20044;-60
2022/12/24 04:36:09;;;;;;;32.92;8.15;;;9.30;99.90;;;;;;5087302;28;20467;-62
2022/12/24 04:38:35;;;;;;;41.72;8.35;;;9.30;99.90;;;;;;5090617;28;20068;-61
2022/12/24 04:41:06;;;;;;;35.17;8.60;;;9.30;99.90;;;;;;5091423;28;20439;-61
2022/12/24 04:43:33;;;;;;;40.97;8.20;;;9.30;99.90;;;;;;5091527;28;20036;-62
2022/12/24 04:46:08;;;;;;;37.95;8.50;;;9.30;99.90;;;;;;5082773;28;20024;-60
2022/12/24 04:48:34;;;;;;;42.45;8.00;;;9.30;99.90;;;;;;5073394;28;20437;-61
2022/12/24 04:51:02;;;;;;;40.88;8.73;;;9.30;99.90;;;;;;5077383;28;20036;-64
2022/12/24 04:53:27;;;;;;;34.70;8.25;;;9.30;99.90;;;;;;5077462;28;20413;-61
2022/12/24 04:55:53;;;;;;;35.92;8.05;;;9.30;99.90;;;;;;5072485;28;20083;-61
2022/12/24 04:58:22;;;;;;;48.33;8.73;;;9.30;99.90;;;;;;5072911;28;20076;-63
2022/12/24 05:00:47;;;;;;;37.53;7.65;;;9.30;99.90;;;;;;5081416;28;20048;-62
2022/12/24 05:03:13;;;;;;;42.17;8.82;;;9.30;99.90;;;;;;5089412;28;20040;-62
2022/12/24 05:05:38;;;;;;;32.88;7.22;;;9.20;99.90;;;;;;5080428;28;20028;-62
2022/12/24 05:08:05;;;;;;;34.78;8.27;;;9.30;99.90;;;;;;5089863;28;20032;-61
2022/12/24 05:10:30;;;;;;;29.60;7.25;;;9.20;99.90;;;;;;5090857;28;20410;-61
2022/12/24 05:12:56;;;;;;;39.65;8.40;;;9.20;99.90;;;;;;5089589;28;20035;-59
2022/12/24 05:15:22;;;;;;;35.95;8.35;;;9.10;99.90;;;;;;5088966;28;20029;-59
2022/12/24 05:17:47;;;;;;;34.22;7.35;;;9.30;99.90;;;;;;5088352;28;20028;-60
2022/12/24 05:20:13;;;;;;;35.40;7.70;;;9.20;99.90;;;;;;5087610;28;20460;-59
2022/12/24 05:28:07;;;;;;;36.80;7.55;;;9.20;99.90;;;;;;5085792;28;20056;-60
2022/12/24 05:30:33;;;;;;;41.13;8.68;;;9.20;99.90;;;;;;5054690;28;20041;-59
2022/12/24 05:32:58;;;;;;;40.03;8.77;;;9.20;99.90;;;;;;5081891;28;20048;-59
2022/12/24 05:35:31;;;;;;;34.88;7.20;;;9.30;99.90;;;;;;5078443;28;20112;-61
2022/12/24 05:37:57;;;;;;;33.83;7.30;;;9.30;99.90;;;;;;5086588;28;20067;-58
2022/12/24 05:40:23;;;;;;;41.00;7.45;;;9.10;99.90;;;;;;5089718;28;20047;-60
2022/12/24 05:42:49;;;;;;;30.63;7.15;;;9.20;99.90;;;;;;5072053;28;20044;-62
2022/12/24 05:45:16;;;;;;;33.17;7.40;;;9.10;99.90;;;;;;5072519;28;20050;-61
2022/12/24 05:47:42;;;;;;;32.40;7.63;;;9.00;99.90;;;;;;5083704;28;20024;-62
2022/12/24 05:50:16;;;;;;;31.23;7.35;;;9.10;99.90;;;;;;5080400;28;20135;-61
2022/12/24 05:52:42;;;;;;;36.60;7.07;;;9.00;99.90;;;;;;5080953;28;20033;-62
2022/12/24 05:55:08;;;;;;;33.03;7.70;;;8.90;99.90;;;;;;5076727;28;20113;-60
2022/12/24 05:57:33;;;;;;;31.35;6.57;;;8.90;99.90;;;;;;5077026;28;20040;-62
2022/12/24 05:59:59;;;;;;;38.83;7.63;;;8.90;99.90;;;;;;5078300;28;20474;-60
2022/12/24 06:02:24;;;;;;;33.53;6.97;;;8.90;99.90;;;;;;5076023;28;20039;-61
2022/12/24 06:04:50;;;;;;;32.88;7.25;;;8.90;99.90;;;;;;5078006;28;20472;-61
2022/12/24 06:07:16;;;;;;;30.13;7.00;;;8.90;99.90;;;;;;5054497;28;20068;-61
2022/12/24 06:09:41;;;;;;;27.33;6.32;;;9.00;99.90;;;;;;5083433;28;20032;-61
2022/12/24 06:12:10;;;;;;;42.47;7.43;;;8.90;99.90;;;;;;5073770;28;20116;-60
2022/12/24 06:14:35;;;;;;;33.90;7.15;;;8.90;99.90;;;;;;5081584;28;20101;-62
2022/12/24 06:17:01;;;;;;;33.03;6.38;;;8.90;99.90;;;;;;5083425;28;20056;-61
2022/12/24 06:19:26;;;;;;;29.25;6.00;;;9.00;99.90;;;;;;5072982;28;20053;-60
2022/12/24 06:21:52;;;;;;;33.42;6.68;;;8.90;99.90;;;;;;5071816;28;20036;-62
2022/12/24 06:24:18;;;;;;;31.45;6.60;;;8.80;99.90;;;;;;5071068;28;20045;-61
2022/12/24 06:26:43;;;;;;;31.10;6.95;;;8.80;99.90;;;;;;5072060;28;20028;-62
2022/12/24 06:29:10;;;;;;;37.30;6.78;;;8.80;99.90;;;;;;5071771;28;20067;-60
2022/12/24 06:31:36;;;;;;;31.27;6.80;;;8.70;99.90;;;;;;5071585;28;20467;-60
2022/12/24 06:34:02;;;;;;;31.83;6.68;;;8.80;99.90;;;;;;5076349;28;20048;-60
2022/12/24 06:36:27;;;;;;;32.53;7.07;;;8.80;99.90;;;;;;5075350;28;20044;-61
2022/12/24 06:38:54;;;;;;;28.42;6.03;;;8.70;99.90;;;;;;5070335;28;20044;-61
2022/12/24 06:41:20;;;;;;;36.00;7.05;;;8.80;99.90;;;;;;5076114;28;20499;-62
2022/12/24 06:43:47;;;;;;;24.35;5.70;;;8.70;99.90;;;;;;5075571;28;20368;-59
2022/12/24 06:46:14;;;;;;;34.95;6.78;;;8.70;99.90;;;;;;5076184;28;20037;-62
2022/12/24 06:48:39;;;;;;;28.55;6.43;;;8.70;99.90;;;;;;5081162;28;20154;-60
2022/12/24 06:51:05;;;;;;;28.52;6.25;;;8.80;99.90;;;;;;5075566;28;20123;-60
2022/12/24 06:53:32;;;;;;;25.85;6.35;;;8.80;99.90;;;;;;5075764;28;20119;-62
2022/12/24 06:56:06;;;;;;;31.05;6.93;;;8.70;99.90;;;;;;5076252;28;20041;-62
2022/12/24 06:58:33;;;;;;;25.30;6.07;;;8.80;99.90;;;;;;5076052;28;20040;-61
2022/12/24 07:01:01;;;;;;;33.08;6.35;;;8.80;99.90;;;;;;5076792;28;20063;-62
2022/12/24 07:03:28;;;;;;;30.77;5.97;;;8.80;99.90;;;;;;5081243;28;20036;-60
2022/12/24 07:05:53;;;;;;;31.60;6.53;;;8.70;99.90;;;;;;5075906;28;20369;-62
2022/12/24 07:08:20;;;;;;;27.58;6.57;;;8.70;99.90;;;;;;5076343;28;20028;-63
2022/12/24 07:10:48;;;;;;;34.95;6.85;;;8.70;99.90;;;;;;5076473;28;20032;-60
2022/12/24 07:13:14;;;;;;;29.10;6.50;;;8.80;99.90;;;;;;5075222;28;20349;-61
2022/12/24 07:15:39;;;;;;;30.77;6.95;;;8.80;99.90;;;;;;5075136;28;20048;-61
2022/12/24 07:18:05;;;;;;;29.75;6.28;;;8.70;99.90;;;;;;5079655;28;20029;-61
2022/12/24 07:20:31;;;;;;;31.70;6.32;;;8.70;99.90;;;;;;5082032;28;20036;-62
2022/12/24 07:22:56;;;;;;;29.65;7.07;;;8.80;99.90;;;;;;5076690;28;20128;-61
2022/12/24 07:25:22;;;;;;;26.67;6.43;;;8.90;99.90;;;;;;5074800;28;20032;-62
2022/12/24 07:27:47;;;;;;;27.52;7.97;;;8.80;99.90;;;;;;5076994;28;20087;-61
2022/12/24 07:30:13;;;;;;;28.85;5.85;;;8.80;99.90;;;;;;5085277;28;20123;-62
2022/12/24 07:32:38;;;;;;;30.08;5.93;;;8.90;99.90;;;;;;5078824;28;20028;-62
2022/12/24 07:35:06;;;;;;;30.27;6.85;;;9.00;99.90;;;;;;5074418;28;20471;-62
2022/12/24 07:37:32;;;;;;;33.40;7.00;;;9.00;99.90;;;;;;5057644;28;20059;-62
2022/12/24 07:39:57;;;;;;;30.45;7.10;;;9.00;99.90;;;;;;5069610;28;20043;-61
2022/12/24 07:42:27;;;;;;;35.13;6.85;;;9.10;99.90;;;;;;5074634;28;20385;-62
2022/12/24 07:44:52;;;;;;;31.85;6.50;;;9.00;99.90;;;;;;5074879;28;20044;-60
2022/12/24 07:47:18;;;;;;;31.38;6.50;;;8.90;99.90;;;;;;5078398;28;20082;-60
2022/12/24 07:49:43;;;;;;;30.25;6.75;;;9.00;99.90;;;;;;5074769;28;20064;-62
2022/12/24 07:52:09;;;;;;;30.05;7.07;;;8.90;99.90;;;;;;5073865;28;20086;-60
2022/12/24 07:54:34;;;;;;;32.85;6.57;;;9.10;99.90;;;;;;5074559;28;20040;-62
2022/12/24 07:57:00;;;;;;;31.80;7.00;;;9.00;99.90;;;;;;5075210;28;20334;-61
2022/12/24 07:59:26;;;;;;;34.95;7.68;;;9.10;99.90;;;;;;5057070;28;20056;-62
2022/12/24 08:01:51;;;;;;;35.00;7.60;;;9.10;99.90;;;;;;5078749;28;20112;-62
2022/12/24 08:04:17;;;;;;;33.22;7.25;;;9.00;99.90;;;;;;5074733;28;20044;-62
2022/12/24 08:06:42;;;;;;;34.33;7.32;;;9.10;99.90;;;;;;5074044;28;20457;-62
2022/12/24 08:09:08;;;;;;;34.13;7.47;;;9.20;99.90;;;;;;5074250;28;20079;-62
2022/12/24 08:11:33;;;;;;;32.65;7.47;;;9.10;99.90;;;;;;5073597;28;20043;-61
2022/12/24 08:13:59;;;;;;;34.13;7.05;;;9.30;99.90;;;;;;5074194;28;20241;-60
2022/12/24 08:16:25;;;;;;;34.33;7.38;;;9.10;99.90;;;;;;5078381;28;20376;-62
2022/12/24 08:18:50;;;;;;;38.58;7.63;;;9.20;99.90;;;;;;5073754;28;20121;-62
2022/12/24 08:21:16;;;;;;;29.17;6.88;;;9.30;99.90;;;;;;5070319;28;20416;-61
2022/12/24 08:23:45;;;;;;;39.60;7.53;;;9.20;99.90;;;;;;5056903;28;20037;-60
2022/12/24 08:26:11;;;;;;;37.20;7.57;;;9.30;99.90;;;;;;5073455;28;20431;-60
2022/12/24 08:28:37;;;;;;;37.25;8.45;;;9.30;99.90;;;;;;5073568;28;20127;-60
2022/12/24 08:31:03;;;;;;;34.13;6.53;;;9.30;99.90;;;;;;5078564;28;20056;-61
2022/12/24 08:33:28;;;;;;;34.47;7.95;;;9.40;99.90;;;;;;5072853;28;20056;-60
2022/12/24 08:35:55;;;;;;;30.52;7.82;;;9.50;99.90;;;;;;5073050;28;20051;-62
2022/12/24 08:38:21;;;;;;;31.88;7.75;;;9.50;99.90;;;;;;5070548;28;20546;-62
2022/12/24 08:40:49;;;;;;;35.28;7.22;;;9.40;99.90;;;;;;5084565;28;20346;-62
2022/12/24 08:43:16;;;;;;;28.95;6.93;;;9.40;99.90;;;;;;5089896;28;20349;-61
2022/12/24 08:45:41;;;;;;;31.73;7.97;;;9.60;99.90;;;;;;5081345;28;20367;-64
2022/12/24 08:48:08;;;;;;;32.08;7.68;;;9.60;99.90;;;;;;5079318;28;20056;-62
2022/12/24 08:50:34;;;;;;;32.80;7.68;;;9.60;99.90;;;;;;5077032;28;20453;-61
2022/12/24 08:53:00;;;;;;;33.78;7.88;;;9.60;99.90;;;;;;5087055;28;20106;-60
2022/12/24 08:55:26;;;;;;;32.88;7.18;;;9.60;99.90;;;;;;5082622;28;20044;-61
2022/12/24 08:57:51;;;;;;;40.90;8.30;;;9.60;99.90;;;;;;5078076;28;20119;-63
2022/12/24 09:00:17;;;;;;;40.33;8.68;;;9.60;99.90;;;;;;5084272;28;20055;-60
2022/12/24 09:02:43;;;;;;;38.97;7.90;;;9.80;99.90;;;;;;5087638;28;20063;-62
2022/12/24 09:05:08;;;;;;;38.47;8.55;;;9.80;99.90;;;;;;5088439;28;20036;-61
2022/12/24 09:07:35;;;;;;;33.08;7.15;;;9.80;99.90;;;;;;5091966;28;20028;-61
2022/12/24 09:10:00;;;;;;;32.28;6.78;;;9.70;99.90;;;;;;5089669;28;20028;-61
2022/12/24 09:12:26;;;;;;;35.60;7.75;;;9.70;99.90;;;;;;5090421;28;20414;-62
2022/12/24 09:14:53;;;;;;;34.45;7.28;;;9.70;99.90;;;;;;5087953;28;20037;-61
2022/12/24 09:17:19;;;;;;;36.70;7.18;;;9.70;99.90;;;;;;5090411;28;20039;-63
2022/12/24 09:19:45;;;;;;;38.22;7.32;;;9.70;99.90;;;;;;5086747;28;20044;-62
2022/12/24 09:22:11;;;;;;;36.72;7.43;;;9.80;99.90;;;;;;5071326;28;20039;-62
2022/12/24 09:24:36;;;;;;;32.10;6.90;;;9.70;99.90;;;;;;5081928;28;20075;-61
2022/12/24 09:27:02;;;;;;;34.20;8.50;;;9.90;99.90;;;;;;5087121;28;20032;-62
2022/12/24 09:29:29;;;;;;;37.17;8.25;;;9.90;99.90;;;;;;5090163;28;20048;-62
2022/12/24 09:31:55;;;;;;;31.27;8.52;;;9.80;99.90;;;;;;5083822;28;20036;-63
2022/12/24 09:34:20;;;;;;;31.45;7.97;;;9.80;99.90;;;;;;5086026;28;20476;-62
2022/12/24 09:36:46;;;;;;;30.92;9.13;;;9.70;99.90;;;;;;5086151;28;20091;-59
2022/12/24 09:39:13;;;;;;;33.90;8.27;;;9.70;99.90;;;;;;5069317;28;20025;-61
2022/12/24 09:42:04;;;;;;;33.28;8.43;;;9.90;99.90;;;;;;5086333;28;20027;-61
2022/12/24 09:44:40;;;;;;;36.05;8.50;;;9.80;99.90;;;;;;5089275;28;20051;-61
2022/12/24 09:47:41;;;;;;;33.63;7.35;;;9.70;99.90;;;;;;5081620;28;20460;-62
2022/12/24 09:50:55;;;;;;;37.15;8.50;;;9.70;99.90;;;;;;5088137;28;20100;-62
2022/12/24 09:53:31;;;;;;;35.50;8.88;;;9.60;99.90;;;;;;4998499;28;20200;-62
2022/12/24 09:55:59;;;;;;;38.80;7.32;;;9.80;99.90;;;;;;4998754;28;20481;-63
2022/12/24 09:58:36;;;;;;;35.92;8.13;;;9.80;99.90;;;;;;5035689;28;20056;-60
2022/12/24 10:01:02;;;;;;;33.20;7.93;;;9.70;99.90;;;;;;5080604;28;20056;-62
2022/12/24 10:03:28;;;;;;;34.22;7.75;;;9.80;99.90;;;;;;5081033;28;20035;-59
2022/12/24 10:06:06;;;;;;;35.22;8.18;;;9.80;99.90;;;;;;5086242;28;20448;-60
2022/12/24 10:09:00;;;;;;;42.47;8.02;;;9.80;99.90;;;;;;5083200;28;20185;-60
2022/12/24 10:11:42;;;;;;;32.58;7.35;;;9.90;99.90;;;;;;5091090;28;20027;-61
2022/12/24 10:14:32;;;;;;;33.08;7.90;;;9.90;99.90;;;;;;5088446;28;20127;-62
2022/12/24 10:17:16;;;;;;;38.28;8.95;;;10.00;99.90;;;;;;5085110;28;20050;-61
2022/12/24 10:20:00;;;;;;;28.13;7.90;;;9.80;99.90;;;;;;5090271;28;20330;-62
2022/12/24 10:22:48;;;;;;;37.92;8.52;;;9.90;99.90;;;;;;5090688;28;20281;-60
2022/12/24 10:25:41;;;;;;;34.67;8.23;;;9.90;99.90;;;;;;5087311;28;20040;-61
2022/12/24 10:28:15;;;;;;;33.97;7.63;;;10.00;99.90;;;;;;5092115;28;20086;-62
2022/12/24 10:30:43;;;;;;;32.05;7.47;;;10.00;99.90;;;;;;5089843;28;20086;-62
2022/12/24 10:33:39;;;;;;;35.22;8.45;;;10.00;99.90;;;;;;5077632;28;20122;-60
2022/12/24 10:36:08;;;;;;;37.58;8.70;;;10.10;99.90;;;;;;5069134;28;20123;-62
2022/12/24 10:38:35;;;;;;;43.42;9.88;;;10.10;99.90;;;;;;5057278;28;20183;-60
2022/12/24 10:41:01;;;;;;;40.50;9.48;;;10.00;99.90;;;;;;5077802;28;20592;-60
2022/12/24 10:43:28;;;;;;;38.88;7.93;;;10.00;99.90;;;;;;5092695;28;20032;-62
2022/12/24 10:46:00;;;;;;;38.17;8.98;;;10.10;99.90;;;;;;5075197;28;20381;-60
2022/12/24 10:48:41;;;;;;;36.80;8.25;;;10.00;99.90;;;;;;5076100;28;20040;-61
2022/12/24 10:51:26;;;;;;;37.55;8.88;;;10.00;99.90;;;;;;5073274;28;20037;-61
2022/12/24 10:53:59;;;;;;;31.90;8.18;;;10.00;99.90;;;;;;5074918;28;20318;-59
2022/12/24 10:56:25;;;;;;;34.38;7.47;;;10.00;99.90;;;;;;5074253;28;20036;-60
2022/12/24 10:58:53;;;;;;;29.52;7.53;;;10.00;99.90;;;;;;5078176;28;20372;-60
2022/12/24 11:01:39;;;;;;;39.80;8.88;;;10.00;99.90;;;;;;5086019;28;20518;-61
2022/12/24 11:04:05;;;;;;;37.22;8.88;;;10.00;99.90;;;;;;5092323;28;20093;-60
2022/12/24 11:06:31;;;;;;;37.42;8.73;;;10.10;99.90;;;;;;5091879;28;20575;-58
2022/12/24 11:09:19;;;;;;;37.00;8.48;;;10.00;99.90;;;;;;5093736;28;20032;-61
2022/12/24 11:11:44;;;;;;;33.63;8.57;;;10.10;99.90;;;;;;5092240;28;20122;-62
2022/12/24 11:14:15;;;;;;;29.23;7.97;;;10.10;99.90;;;;;;5091887;28;20044;-58
2022/12/24 11:16:49;;;;;;;33.13;7.95;;;10.00;99.90;;;;;;5087495;28;20043;-61
2022/12/24 11:19:25;;;;;;;41.38;8.52;;;10.00;99.90;;;;;;5088267;28;20530;-58
2022/12/24 11:21:59;;;;;;;37.83;9.48;;;10.00;99.90;;;;;;5080955;28;20112;-59
2022/12/24 11:24:29;;;;;;;30.83;7.72;;;10.10;99.90;;;;;;5078452;28;20036;-58
2022/12/24 11:27:29;;;;;;;36.03;9.15;;;10.10;99.90;;;;;;5088705;28;20097;-60
2022/12/24 11:30:19;;;;;;;34.70;8.45;;;10.10;99.90;;;;;;5085949;28;20049;-60
2022/12/24 11:33:15;;;;;;;36.45;8.35;;;10.10;99.90;;;;;;5091465;28;20047;-60
2022/12/24 11:35:46;;;;;;;31.98;7.38;;;10.20;99.90;;;;;;5078899;28;20131;-59
2022/12/24 11:38:19;;;;;;;34.97;8.70;;;10.10;99.90;;;;;;5084284;28;20044;-60
2022/12/24 11:40:48;;;;;;;30.40;8.77;;;10.20;99.90;;;;;;5085444;28;20036;-60
2022/12/24 11:43:15;;;;;;;31.00;6.95;;;10.10;99.90;;;;;;5064244;28;20098;-58
2022/12/24 11:45:54;;;;;;;34.95;7.90;;;10.20;99.90;;;;;;5074631;28;20044;-60
2022/12/24 11:48:31;;;;;;;33.20;7.88;;;10.20;99.90;;;;;;5091809;28;20036;-58
2022/12/24 11:51:24;;;;;;;33.03;9.65;;;10.20;99.90;;;;;;5090130;28;20039;-60
2022/12/24 11:54:15;;;;;;;39.10;8.40;;;10.20;99.90;;;;;;5089373;28;20083;-59
2022/12/24 11:56:45;;;;;;;29.60;7.72;;;10.10;99.90;;;;;;5090644;28;20127;-61
2022/12/24 11:59:27;;;;;;;34.33;8.52;;;10.10;99.90;;;;;;5067069;28;20127;-60
2022/12/24 12:02:09;;;;;;;40.80;9.55;;;10.20;99.90;;;;;;5085245;28;20041;-60
2022/12/24 12:04:37;;;;;;;31.27;6.70;;;10.20;99.90;;;;;;5074230;28;20086;-58
2022/12/24 12:07:10;;;;;;;33.08;6.90;;;10.10;99.90;;;;;;5076580;28;20073;-60
2022/12/24 12:09:59;;;;;;;31.90;9.00;;;10.20;99.90;;;;;;5085323;28;20436;-58
2022/12/24 12:12:32;;;;;;;33.60;7.50;;;10.30;99.90;;;;;;5074182;28;20040;-60
2022/12/24 12:15:07;;;;;;;34.80;10.45;;;10.30;99.90;;;;;;5056030;28;20044;-57
2022/12/24 12:18:00;;;;;;;29.85;7.10;;;10.30;99.90;;;;;;5079628;28;20075;-60
2022/12/24 12:20:27;;;;;;;26.02;6.90;;;10.30;99.90;;;;;;5066955;28;20079;-60
2022/12/24 12:22:59;;;;;;;27.00;6.30;;;10.40;99.90;;;;;;5090244;28;20044;-60
2022/12/24 12:25:50;;;;;;;26.05;6.18;;;10.40;99.90;;;;;;5086588;28;20040;-58
2022/12/24 12:28:27;;;;;;;29.40;6.45;;;10.50;99.90;;;;;;5078216;28;20443;-61
2022/12/24 12:31:06;;;;;;;28.25;6.57;;;10.50;99.90;;;;;;5078513;28;20043;-62
2022/12/24 12:33:45;;;;;;;32.15;7.22;;;10.50;99.90;;;;;;5078169;28;20040;-59
2022/12/24 12:36:15;;;;;;;25.42;6.43;;;10.40;99.90;;;;;;5076146;28;20333;-61
2022/12/24 12:39:21;;;;;;;36.17;7.43;;;10.50;99.90;;;;;;5072754;28;20098;-61
2022/12/24 12:42:16;;;;;;;30.42;7.78;;;10.60;99.90;;;;;;5061056;28;20114;-62
2022/12/24 12:44:53;;;;;;;22.95;5.43;;;10.60;99.90;;;;;;5074330;28;20421;-61
2022/12/24 12:47:42;;;;;;;22.13;5.22;;;10.70;99.90;;;;;;5074630;28;20036;-62
2022/12/24 12:50:21;;;;;;;27.55;6.45;;;10.70;99.90;;;;;;5071740;28;20059;-62
2022/12/24 12:53:25;;;;;;;21.65;5.22;;;10.80;99.90;;;;;;5063286;28;20183;-62
2022/12/24 12:56:02;;;;;;;20.98;5.22;;;10.90;99.90;;;;;;5038300;28;20372;-63
2022/12/24 12:58:47;;;;;;;23.17;5.57;;;10.90;99.90;;;;;;5076245;28;20266;-61
2022/12/24 13:01:22;;;;;;;;;;;11.00;99.90;;;;;;5075302;28;20047;-62
2022/12/24 13:04:05;;;;;;;21.60;5.22;;;11.00;99.90;;;;;;5064393;28;19924;-62
2022/12/24 13:07:08;;;;;;;20.77;5.18;;;11.00;99.90;;;;;;5067943;28;20122;-61
2022/12/24 13:09:46;;;;;;;18.70;4.35;;;11.10;99.90;;;;;;5035260;28;20050;-62
2022/12/24 13:12:14;;;;;;;22.58;5.55;;;11.10;99.90;;;;;;5079626;28;20028;-63
2022/12/24 13:15:01;;;;;;;17.90;5.10;;;11.10;99.90;;;;;;5078814;28;20032;-62